createdAt,value
2022-08-10T00:00:00.841Z,51.60
2022-08-10T00:02:30.087Z,51.50
2022-08-10T00:04:57.978Z,52.00
2022-08-10T00:07:25.886Z,51.60
2022-08-10T00:09:53.768Z,51.60
2022-08-10T00:12:21.677Z,51.60
2022-08-10T00:14:49.638Z,51.70
2022-08-10T00:17:17.507Z,52.20
2022-08-10T00:20:03.162Z,51.80
2022-08-10T00:22:32.785Z,51.70
2022-08-10T00:25:00.863Z,51.80
2022-08-10T00:27:58.849Z,51.90
2022-08-10T00:30:17.926Z,51.90
2022-08-10T00:32:45.758Z,51.90
2022-08-10T00:35:15.005Z,51.90
2022-08-10T00:37:42.894Z,51.90
2022-08-10T00:40:35.450Z,52.00
2022-08-10T00:43:06.227Z,51.90
2022-08-10T00:45:34.559Z,52.00
2022-08-10T00:48:02.841Z,52.00
2022-08-10T00:50:32.280Z,52.00
2022-08-10T00:53:00.540Z,52.20
2022-08-10T00:55:28.724Z,52.20
2022-08-10T00:57:57.518Z,52.20
2022-08-10T01:00:25.937Z,52.30
2022-08-10T01:02:53.946Z,52.40
2022-08-10T01:05:22.758Z,52.50
2022-08-10T01:08:08.714Z,52.60
2022-08-10T01:10:44.510Z,52.60
2022-08-10T01:13:22.382Z,52.60
2022-08-10T01:15:56.525Z,52.70
2022-08-10T01:18:37.547Z,52.80
2022-08-10T01:21:57.266Z,52.80
2022-08-10T01:24:40.385Z,52.90
2022-08-10T01:27:20.071Z,53.00
2022-08-10T01:30:00.773Z,53.10
2022-08-10T01:32:48.346Z,53.10
2022-08-10T01:35:23.084Z,53.30
2022-08-10T01:37:58.329Z,53.40
2022-08-10T01:40:29.405Z,53.40
2022-08-10T01:42:59.842Z,53.40
2022-08-10T01:45:44.835Z,53.50
2022-08-10T01:48:32.420Z,53.50
2022-08-10T01:51:09.013Z,53.60
2022-08-10T01:53:41.792Z,53.60
2022-08-10T01:56:13.224Z,53.70
2022-08-10T01:58:43.189Z,53.70
2022-08-10T02:01:16.695Z,53.80
2022-08-10T02:04:04.007Z,53.90
2022-08-10T02:06:37.928Z,54.00
2022-08-10T02:09:07.929Z,54.10
2022-08-10T02:11:55.821Z,54.20
2022-08-10T02:14:32.996Z,54.20
2022-08-10T02:17:05.711Z,54.30
2022-08-10T02:19:36.319Z,54.30
2022-08-10T02:22:45.807Z,54.50
2022-08-10T02:24:55.463Z,54.50
2022-08-10T02:27:25.511Z,55.10
2022-08-10T02:29:54.919Z,54.70
2022-08-10T02:32:38.527Z,54.80
2022-08-10T02:35:13.206Z,54.80
2022-08-10T02:37:52.343Z,54.90
2022-08-10T02:45:02.365Z,55.00
2022-08-10T02:45:29.837Z,55.00
2022-08-10T02:46:10.270Z,55.10
2022-08-10T02:48:43.667Z,55.20
2022-08-10T02:51:16.842Z,55.30
2022-08-10T02:53:55.884Z,55.30
2022-08-10T02:56:33.099Z,55.30
2022-08-10T02:59:06.706Z,55.30
2022-08-10T03:01:38.288Z,55.40
2022-08-10T03:04:12.904Z,55.50
2022-08-10T03:06:45.757Z,55.60
2022-08-10T03:09:16.771Z,55.70
2022-08-10T03:12:35.362Z,55.70
2022-08-10T03:14:35.195Z,56.40
2022-08-10T03:17:04.203Z,55.90
2022-08-10T03:20:34.944Z,56.60
2022-08-10T03:22:24.017Z,56.00
2022-08-10T03:24:53.862Z,56.10
2022-08-10T03:27:23.498Z,56.20
2022-08-10T03:30:29.783Z,56.30
2022-08-10T03:32:41.142Z,56.40
2022-08-10T03:35:12.437Z,56.40
2022-08-10T03:37:40.506Z,56.40
2022-08-10T03:40:10.071Z,56.50
2022-08-10T03:42:40.831Z,56.60
2022-08-10T03:45:10.211Z,56.70
2022-08-10T03:47:40.042Z,56.70
2022-08-10T03:50:45.103Z,56.70
2022-08-10T03:52:59.687Z,56.80
2022-08-10T03:56:26.717Z,56.90
2022-08-10T03:58:16.389Z,57.00
2022-08-10T04:00:45.123Z,57.00
2022-08-10T04:03:13.942Z,57.10
2022-08-10T04:05:43.312Z,57.20
2022-08-10T04:08:11.609Z,57.10
2022-08-10T04:10:39.457Z,57.30
2022-08-10T04:13:07.489Z,57.20
2022-08-10T04:15:35.394Z,57.40
2022-08-10T04:18:06.402Z,57.50
2022-08-10T04:20:39.527Z,57.50
2022-08-10T04:23:13.357Z,57.60
2022-08-10T04:25:41.859Z,57.60
2022-08-10T04:28:11.061Z,57.70
2022-08-10T04:30:40.650Z,57.80
2022-08-10T04:33:11.386Z,57.80
2022-08-10T04:35:40.874Z,57.90
2022-08-10T04:38:11.190Z,58.00
2022-08-10T04:40:39.290Z,58.10
2022-08-10T04:43:12.900Z,58.10
2022-08-10T04:45:49.751Z,58.20
2022-08-10T04:48:39.977Z,58.20
2022-08-10T04:51:18.046Z,58.40
2022-08-10T04:54:04.518Z,58.50
2022-08-10T04:56:36.359Z,58.50
2022-08-10T04:59:05.043Z,58.70
2022-08-10T05:02:27.026Z,58.90
2022-08-10T05:04:36.054Z,59.00
2022-08-10T05:07:07.497Z,59.00
2022-08-10T05:10:04.002Z,59.20
2022-08-10T05:12:24.808Z,59.20
2022-08-10T05:14:54.583Z,59.30
2022-08-10T05:17:23.713Z,59.40
2022-08-10T05:20:04.854Z,59.50
2022-08-10T05:22:35.216Z,59.70
2022-08-10T05:25:05.923Z,59.70
2022-08-10T05:27:34.052Z,59.80
2022-08-10T05:30:03.690Z,59.80
2022-08-10T05:32:32.606Z,59.80
2022-08-10T05:35:20.570Z,59.90
2022-08-10T05:38:10.740Z,60.10
2022-08-10T05:40:39.440Z,60.10
2022-08-10T05:43:07.930Z,60.20
2022-08-10T05:46:17.628Z,60.20
2022-08-10T05:48:56.457Z,60.20
2022-08-10T05:51:12.508Z,60.20
2022-08-10T05:54:03.362Z,60.20
2022-08-10T05:56:53.950Z,60.20
2022-08-10T06:00:35.541Z,60.20
2022-08-10T06:02:41.136Z,60.10
2022-08-10T06:05:00.830Z,60.30
2022-08-10T06:07:31.223Z,60.20
2022-08-10T06:10:01.728Z,60.20
2022-08-10T06:12:33.498Z,60.20
2022-08-10T06:15:10.207Z,60.20
2022-08-10T06:17:59.073Z,60.30
2022-08-10T06:20:35.842Z,60.30
2022-08-10T06:23:05.630Z,60.30
2022-08-10T06:28:25.720Z,60.40
2022-08-10T06:30:55.656Z,60.50
2022-08-10T06:33:25.227Z,60.50
2022-08-10T06:35:56.142Z,60.50
2022-08-10T06:38:27.641Z,60.60
2022-08-10T06:40:58.800Z,60.50
2022-08-10T06:43:29.869Z,61.20
2022-08-10T06:46:07.219Z,60.70
2022-08-10T06:48:40.377Z,61.40
2022-08-10T06:51:12.673Z,60.90
2022-08-10T06:53:53.846Z,60.70
2022-08-10T06:56:38.015Z,60.60
2022-08-10T06:59:13.224Z,60.40
2022-08-10T07:01:54.005Z,60.40
2022-08-10T07:04:32.003Z,60.50
2022-08-10T07:07:03.411Z,60.90
2022-08-10T07:09:32.923Z,60.50
2022-08-10T07:12:08.139Z,60.40
2022-08-10T07:14:42.583Z,60.30
2022-08-10T07:17:15.899Z,60.00
2022-08-10T07:19:50.494Z,60.00
2022-08-10T07:23:50.631Z,60.10
2022-08-10T07:25:11.622Z,60.00
2022-08-10T07:28:00.178Z,59.80
2022-08-10T07:30:32.867Z,59.90
2022-08-10T07:33:02.822Z,59.60
2022-08-10T07:35:42.393Z,59.80
2022-08-10T07:38:17.035Z,60.20
2022-08-10T07:40:46.263Z,59.60
2022-08-10T07:43:15.027Z,60.00
2022-08-10T07:45:44.488Z,60.00
2022-08-10T07:48:17.100Z,59.40
2022-08-10T07:50:47.271Z,59.00
2022-08-10T07:53:20.281Z,59.00
2022-08-10T07:56:01.475Z,58.60
2022-08-10T07:58:39.314Z,58.40
2022-08-10T08:01:11.198Z,58.90
2022-08-10T08:03:41.351Z,58.30
2022-08-10T08:06:12.069Z,57.90
2022-08-10T08:08:41.875Z,58.10
2022-08-10T08:11:25.609Z,57.80
2022-08-10T08:13:55.489Z,57.90
2022-08-10T08:16:25.431Z,57.40
2022-08-10T08:19:26.942Z,57.40
2022-08-10T08:24:05.778Z,57.10
2022-08-10T08:24:36.661Z,57.00
2022-08-10T08:27:06.042Z,57.10
2022-08-10T08:29:37.232Z,56.90
2022-08-10T08:32:08.232Z,56.20
2022-08-10T08:34:39.671Z,55.80
2022-08-10T08:37:10.519Z,56.10
2022-08-10T08:39:38.372Z,56.80
2022-08-10T08:42:19.389Z,56.30
2022-08-10T08:45:00.345Z,55.90
2022-08-10T08:48:04.644Z,55.50
2022-08-10T08:50:45.832Z,55.40
2022-08-10T08:54:01.693Z,55.20
2022-08-10T08:56:24.851Z,55.00
2022-08-10T08:59:06.684Z,55.00
2022-08-10T09:01:49.755Z,54.10
2022-08-10T09:04:49.594Z,53.70
2022-08-10T09:08:00.341Z,53.60
2022-08-10T09:10:46.482Z,53.60
2022-08-10T09:13:26.546Z,53.40
2022-08-10T09:16:06.225Z,53.30
2022-08-10T09:18:42.835Z,52.70
2022-08-10T09:21:22.718Z,53.10
2022-08-10T09:24:04.661Z,52.50
2022-08-10T09:26:47.891Z,52.20
2022-08-10T09:29:24.258Z,51.90
2022-08-10T09:36:15.120Z,51.70
2022-08-10T09:36:22.793Z,51.80
2022-08-10T09:38:02.574Z,51.90
2022-08-10T09:41:03.074Z,51.90
2022-08-10T09:43:37.208Z,51.30
2022-08-10T09:46:12.684Z,51.70
2022-08-10T09:48:48.387Z,51.90
2022-08-10T09:51:47.161Z,51.70
2022-08-10T09:54:31.164Z,51.30
2022-08-10T09:57:43.539Z,50.20
2022-08-10T10:00:09.067Z,50.70
2022-08-10T10:02:45.258Z,50.00
2022-08-10T10:05:25.206Z,50.20
2022-08-10T10:07:58.819Z,50.40
2022-08-10T10:10:36.949Z,50.70
2022-08-10T10:13:54.642Z,50.60
2022-08-10T10:16:34.226Z,50.50
2022-08-10T10:19:11.518Z,50.30
2022-08-10T10:21:54.933Z,50.10
2022-08-10T10:24:34.338Z,49.60
2022-08-10T10:27:16.817Z,49.10
2022-08-10T10:29:58.123Z,49.40
2022-08-10T10:32:46.026Z,49.60
2022-08-10T10:35:28.250Z,49.50
2022-08-10T10:38:01.151Z,49.20
2022-08-10T10:40:40.219Z,48.40
2022-08-10T10:43:24.498Z,48.00
2022-08-10T10:46:07.996Z,47.70
2022-08-10T10:48:42.428Z,47.20
2022-08-10T10:51:17.312Z,47.30
2022-08-10T10:54:00.684Z,47.10
2022-08-10T10:56:36.506Z,47.00
2022-08-10T10:59:53.801Z,46.10
2022-08-10T11:02:14.420Z,45.80
2022-08-10T11:04:48.019Z,45.60
2022-08-10T11:07:28.431Z,45.90
2022-08-10T11:10:09.824Z,45.90
2022-08-10T11:14:22.903Z,45.80
2022-08-10T11:15:58.601Z,45.30
2022-08-10T11:18:34.118Z,45.10
2022-08-10T11:21:10.722Z,44.80
2022-08-10T11:24:46.922Z,44.80
2022-08-10T11:26:45.490Z,44.10
2022-08-10T11:29:20.604Z,44.90
2022-08-10T11:31:58.891Z,44.20
2022-08-10T11:34:48.807Z,43.50
2022-08-10T11:37:30.117Z,43.70
2022-08-10T11:40:25.455Z,43.30
2022-08-10T11:43:05.446Z,43.20
2022-08-10T11:45:36.699Z,43.10
2022-08-10T11:48:13.863Z,43.40
2022-08-10T11:51:05.771Z,43.40
2022-08-10T11:53:43.547Z,43.60
2022-08-10T11:56:17.179Z,43.80
2022-08-10T11:59:16.700Z,43.70
2022-08-10T12:01:46.721Z,43.00
2022-08-10T12:04:18.249Z,42.50
2022-08-10T12:06:56.580Z,42.40
2022-08-10T12:10:09.094Z,42.20
2022-08-10T12:12:14.913Z,42.10
2022-08-10T12:14:51.406Z,41.80
2022-08-10T12:17:23.821Z,41.50
2022-08-10T12:20:04.066Z,41.10
2022-08-10T12:22:37.426Z,41.60
2022-08-10T12:25:55.033Z,41.50
2022-08-10T12:28:08.585Z,41.00
2022-08-10T12:30:43.031Z,40.80
2022-08-10T12:33:18.701Z,40.70
2022-08-10T12:36:16.919Z,40.80
2022-08-10T12:38:47.449Z,41.00
2022-08-10T12:41:43.163Z,41.10
2022-08-10T12:44:14.202Z,41.10
2022-08-10T12:46:51.295Z,40.30
2022-08-10T12:49:23.980Z,40.20
2022-08-10T12:52:01.153Z,40.00
2022-08-10T12:54:35.857Z,39.80
2022-08-10T12:57:08.990Z,39.90
2022-08-10T12:59:43.512Z,40.20
2022-08-10T13:02:15.023Z,39.90
2022-08-10T13:04:45.717Z,40.10
2022-08-10T13:08:03.569Z,39.60
2022-08-10T13:10:11.081Z,39.30
2022-08-10T13:12:41.635Z,39.30
2022-08-10T13:15:45.593Z,39.50
2022-08-10T13:18:18.690Z,39.70
2022-08-10T13:20:51.712Z,39.70
2022-08-10T13:23:24.887Z,39.70
2022-08-10T13:25:56.036Z,39.50
2022-08-10T13:28:35.454Z,39.70
2022-08-10T13:31:11.480Z,39.60
2022-08-10T13:34:40.734Z,39.40
2022-08-10T13:36:38.875Z,39.00
2022-08-10T13:39:09.492Z,39.00
2022-08-10T13:41:41.259Z,39.30
2022-08-10T13:44:12.498Z,39.00
2022-08-10T13:46:42.486Z,39.00
2022-08-10T13:49:12.813Z,38.90
2022-08-10T13:51:56.836Z,39.30
2022-08-10T13:54:30.109Z,39.30
2022-08-10T13:56:59.213Z,39.30
2022-08-10T14:00:33.116Z,39.20
2022-08-10T14:02:24.989Z,39.20
2022-08-10T14:04:55.929Z,39.20
2022-08-10T14:07:24.915Z,39.60
2022-08-10T14:10:01.991Z,39.70
2022-08-10T14:12:31.875Z,39.60
2022-08-10T14:15:03.357Z,39.30
2022-08-10T14:17:32.269Z,39.50
2022-08-10T14:20:10.602Z,39.50
2022-08-10T14:22:42.022Z,39.40
2022-08-10T14:25:13.397Z,39.20
2022-08-10T14:28:03.199Z,39.20
2022-08-10T14:30:33.206Z,39.30
2022-08-10T14:33:04.669Z,38.90
2022-08-10T14:36:20.846Z,39.00
2022-08-10T14:38:28.197Z,38.80
2022-08-10T14:40:59.772Z,38.90
2022-08-10T14:43:29.672Z,37.90
2022-08-10T14:46:01.340Z,38.00
2022-08-10T14:48:33.821Z,38.10
2022-08-10T14:51:03.951Z,38.20
2022-08-10T14:53:35.041Z,38.00
2022-08-10T14:56:09.428Z,38.40
2022-08-10T14:58:39.545Z,38.20
2022-08-10T15:02:00.312Z,38.30
2022-08-10T15:04:19.416Z,38.40
2022-08-10T15:06:55.050Z,38.00
2022-08-10T15:09:25.507Z,38.10
2022-08-10T15:12:13.901Z,38.10
2022-08-10T15:14:45.817Z,38.20
2022-08-10T15:17:17.622Z,38.20
2022-08-10T15:20:02.977Z,37.90
2022-08-10T15:22:38.452Z,38.00
2022-08-10T15:25:18.865Z,38.10
2022-08-10T15:27:54.478Z,37.60
2022-08-10T15:30:30.045Z,37.60
2022-08-10T15:33:21.625Z,37.50
2022-08-10T15:36:26.394Z,37.80
2022-08-10T15:39:00.266Z,38.30
2022-08-10T15:41:58.820Z,37.70
2022-08-10T15:44:38.282Z,37.60
2022-08-10T15:47:10.306Z,37.50
2022-08-10T15:49:45.876Z,37.70
2022-08-10T15:52:38.676Z,37.80
2022-08-10T15:55:41.566Z,37.80
2022-08-10T15:58:06.656Z,37.60
2022-08-10T16:00:40.536Z,37.80
2022-08-10T16:03:14.567Z,37.50
2022-08-10T16:06:01.702Z,37.40
2022-08-10T16:08:55.801Z,37.20
2022-08-10T16:11:38.314Z,37.40
2022-08-10T16:14:16.368Z,37.30
2022-08-10T16:16:50.334Z,37.30
2022-08-10T16:19:24.149Z,37.20
2022-08-10T16:21:57.864Z,36.80
2022-08-10T16:24:30.735Z,36.90
2022-08-10T16:27:01.742Z,37.10
2022-08-10T16:29:30.147Z,37.20
2022-08-10T16:32:02.923Z,37.60
2022-08-10T16:34:33.025Z,37.60
2022-08-10T16:37:04.280Z,37.50
2022-08-10T16:39:58.356Z,37.60
2022-08-10T16:42:28.032Z,37.50
2022-08-10T16:45:02.405Z,37.70
2022-08-10T16:47:34.023Z,37.60
2022-08-10T16:50:04.546Z,37.60
2022-08-10T16:52:33.421Z,37.40
2022-08-10T16:55:16.613Z,37.30
2022-08-10T16:57:55.559Z,37.30
2022-08-10T17:00:25.684Z,37.60
2022-08-10T17:02:59.098Z,37.80
2022-08-10T17:06:10.322Z,38.10
2022-08-10T17:08:20.591Z,38.00
2022-08-10T17:10:52.199Z,38.10
2022-08-10T17:13:23.672Z,37.90
2022-08-10T17:15:57.478Z,38.00
2022-08-10T17:18:29.580Z,38.20
2022-08-10T17:21:01.198Z,38.20
2022-08-10T17:23:32.632Z,38.40
2022-08-10T17:26:06.457Z,38.90
2022-08-10T17:28:39.757Z,38.20
2022-08-10T17:31:23.500Z,38.40
2022-08-10T17:33:58.754Z,38.40
2022-08-10T17:36:33.199Z,38.60
2022-08-10T17:39:02.778Z,38.90
2022-08-10T17:41:34.398Z,38.90
2022-08-10T17:44:04.883Z,39.50
2022-08-10T17:46:33.709Z,39.10
2022-08-10T17:49:08.626Z,39.00
2022-08-10T17:51:39.176Z,39.10
2022-08-10T17:54:09.585Z,39.40
2022-08-10T17:56:38.903Z,39.60
2022-08-10T17:59:17.630Z,39.80
2022-08-10T18:01:58.742Z,40.00
2022-08-10T18:04:41.913Z,40.10
2022-08-10T18:07:12.528Z,40.30
2022-08-10T18:09:44.316Z,40.30
2022-08-10T18:12:17.834Z,40.70
2022-08-10T18:14:49.267Z,40.60
2022-08-10T18:17:19.133Z,40.70
2022-08-10T18:19:53.918Z,40.70
2022-08-10T18:22:22.600Z,40.90
2022-08-10T18:24:52.713Z,40.80
2022-08-10T18:27:22.116Z,41.10
2022-08-10T18:30:11.697Z,40.80
2022-08-10T18:32:42.095Z,41.30
2022-08-10T18:35:14.035Z,41.10
2022-08-10T18:37:42.485Z,41.40
2022-08-10T18:40:12.054Z,41.30
2022-08-10T18:42:47.442Z,41.30
2022-08-10T18:45:21.210Z,41.50
2022-08-10T18:47:59.627Z,41.60
2022-08-10T18:50:32.870Z,41.90
2022-08-10T18:53:03.526Z,42.10
2022-08-10T18:55:35.453Z,42.30
2022-08-10T18:58:45.134Z,42.40
2022-08-10T19:01:30.425Z,42.40
2022-08-10T19:04:13.026Z,42.40
2022-08-10T19:07:05.198Z,42.70
2022-08-10T19:09:52.035Z,42.60
2022-08-10T19:12:40.422Z,42.90
2022-08-10T19:15:23.227Z,43.80
2022-08-10T19:18:07.225Z,43.30
2022-08-10T19:20:42.211Z,43.40
2022-08-10T19:23:38.689Z,43.50
2022-08-10T19:26:42.474Z,43.60
2022-08-10T19:30:12.153Z,43.60
2022-08-10T19:32:21.482Z,44.00
2022-08-10T19:35:00.995Z,44.10
2022-08-10T19:37:36.161Z,44.20
2022-08-10T19:40:46.196Z,44.20
2022-08-10T19:43:30.779Z,44.40
2022-08-10T19:46:14.510Z,44.40
2022-08-10T19:48:48.517Z,44.70
2022-08-10T19:51:23.872Z,44.60
2022-08-10T19:54:00.374Z,44.80
2022-08-10T19:56:39.272Z,44.80
2022-08-10T20:00:01.955Z,44.90
2022-08-10T20:02:10.019Z,44.80
2022-08-10T20:04:47.200Z,44.90
2022-08-10T20:07:19.798Z,44.90
2022-08-10T20:09:55.035Z,45.20
2022-08-10T20:12:34.629Z,45.30
2022-08-10T20:15:06.947Z,45.30
2022-08-10T20:17:52.053Z,45.50
2022-08-10T20:20:31.370Z,45.60
2022-08-10T20:23:10.341Z,45.70
2022-08-10T20:25:42.373Z,45.80
2022-08-10T20:28:19.791Z,45.90
2022-08-10T20:30:52.509Z,46.00
2022-08-10T20:33:28.346Z,46.10
2022-08-10T20:36:03.488Z,46.20
2022-08-10T20:38:39.194Z,46.20
2022-08-10T20:41:19.107Z,46.80
2022-08-10T20:44:01.173Z,46.60
2022-08-10T20:46:36.847Z,46.60
2022-08-10T20:49:20.773Z,46.80
2022-08-10T20:51:58.203Z,46.90
2022-08-10T20:54:32.411Z,46.90
2022-08-10T20:58:03.878Z,47.10
2022-08-10T21:00:13.874Z,47.30
2022-08-10T21:03:06.812Z,47.30
2022-08-10T21:05:44.024Z,47.30
2022-08-10T21:08:18.375Z,47.50
2022-08-10T21:11:04.768Z,47.60
2022-08-10T21:13:47.587Z,47.70
2022-08-10T21:16:30.149Z,47.70
2022-08-10T21:19:28.574Z,47.80
2022-08-10T21:22:13.289Z,48.00
2022-08-10T21:24:52.272Z,48.10
2022-08-10T21:27:42.573Z,48.10
2022-08-10T21:30:17.348Z,48.20
2022-08-10T21:33:00.038Z,48.20
2022-08-10T21:35:38.384Z,48.30
2022-08-10T21:38:13.089Z,48.50
2022-08-10T21:41:18.034Z,48.50
2022-08-10T21:44:14.954Z,48.70
2022-08-10T21:47:10.856Z,48.70
2022-08-10T21:50:07.618Z,48.80
2022-08-10T21:53:03.829Z,48.90
2022-08-10T21:55:59.941Z,48.90
2022-08-10T21:58:50.502Z,48.90
2022-08-10T22:01:41.599Z,48.90
2022-08-10T22:04:29.208Z,48.90
2022-08-10T22:07:21.213Z,48.90
2022-08-10T22:10:11.970Z,48.90
2022-08-10T22:13:02.836Z,49.10
2022-08-10T22:16:05.681Z,49.20
2022-08-10T22:19:02.953Z,49.30
2022-08-10T22:22:02.073Z,49.50
2022-08-10T22:25:16.504Z,49.60
2022-08-10T22:28:03.044Z,49.70
2022-08-10T22:31:22.921Z,49.90
2022-08-10T22:34:12.190Z,50.00
2022-08-10T22:37:26.914Z,50.00
2022-08-10T22:40:21.960Z,50.00
2022-08-10T22:43:12.392Z,50.20
2022-08-10T22:46:06.077Z,50.30
2022-08-10T22:48:59.400Z,50.40
2022-08-10T22:51:35.710Z,50.30
2022-08-10T22:54:31.199Z,50.30
2022-08-10T22:57:19.837Z,50.40
2022-08-10T22:59:49.173Z,50.40
2022-08-10T23:02:29.162Z,50.50
2022-08-10T23:05:02.929Z,50.70
2022-08-10T23:07:33.050Z,50.80
2022-08-10T23:10:05.179Z,50.90
2022-08-10T23:12:38.928Z,51.10
2022-08-10T23:15:32.992Z,51.20
2022-08-10T23:18:22.696Z,51.40
2022-08-10T23:20:51.740Z,52.00
2022-08-10T23:23:23.944Z,51.60
2022-08-10T23:25:57.087Z,51.60
2022-08-10T23:28:39.131Z,51.70
2022-08-10T23:31:50.247Z,51.80
2022-08-10T23:34:08.779Z,51.90
2022-08-10T23:36:40.798Z,52.00
2022-08-10T23:39:25.517Z,52.10
2022-08-10T23:42:04.631Z,52.20
2022-08-10T23:44:41.517Z,52.20
2022-08-10T23:47:10.242Z,52.30
2022-08-10T23:49:39.028Z,52.60
2022-08-10T23:52:11.996Z,52.60
2022-08-10T23:54:45.617Z,53.30
2022-08-10T23:57:18.537Z,52.90
2022-08-10T23:59:58.767Z,53.00
